sensor_id;sensor_type;location;lat;lon;timestamp;pressure;altitude;pressure_sealevel;temperature;humidity
30714;BME280;17465;47.934;33.430;2023-05-19T00:02:15;57244.65;;;-140.43;47.38
30714;BME280;17465;47.934;33.430;2023-05-19T00:04:46;57238.29;;;-140.43;47.58
30714;BME280;17465;47.934;33.430;2023-05-19T00:07:17;57240.41;;;-140.43;47.62
30714;BME280;17465;47.934;33.430;2023-05-19T00:09:48;57226.64;;;-140.43;47.64
30714;BME280;17465;47.934;33.430;2023-05-19T00:12:21;57245.71;;;-140.43;47.68
30714;BME280;17465;47.934;33.430;2023-05-19T00:14:52;57244.65;;;-140.43;47.92
30714;BME280;17465;47.934;33.430;2023-05-19T00:17:23;57261.59;;;-140.43;48.13
30714;BME280;17465;47.934;33.430;2023-05-19T00:19:53;57257.36;;;-140.43;47.17
30714;BME280;17465;47.934;33.430;2023-05-19T00:22:23;57216.05;;;-140.43;47.77
30714;BME280;17465;47.934;33.430;2023-05-19T00:24:54;57231.94;;;-140.43;46.98
30714;BME280;17465;47.934;33.430;2023-05-19T00:27:24;57229.82;;;-140.43;48.07
30714;BME280;17465;47.934;33.430;2023-05-19T00:29:54;57246.77;;;-140.43;46.37
30714;BME280;17465;47.934;33.430;2023-05-19T00:32:25;57239.35;;;-140.43;45.71
30714;BME280;17465;47.934;33.430;2023-05-19T00:34:55;57271.13;;;-140.43;45.99
30714;BME280;17465;47.934;33.430;2023-05-19T00:37:26;57271.13;;;-140.43;45.99
30714;BME280;17465;47.934;33.430;2023-05-19T00:39:56;57251.00;;;-140.43;46.73
30714;BME280;17465;47.934;33.430;2023-05-19T00:42:26;57244.65;;;-140.43;46.84
30714;BME280;17465;47.934;33.430;2023-05-19T00:44:57;57227.70;;;-140.43;46.63
30714;BME280;17465;47.934;33.430;2023-05-19T00:47:27;57227.70;;;-140.43;46.63
30714;BME280;17465;47.934;33.430;2023-05-19T00:49:58;57236.18;;;-140.43;45.83
30714;BME280;17465;47.934;33.430;2023-05-19T00:52:29;57236.18;;;-140.43;45.83
30714;BME280;17465;47.934;33.430;2023-05-19T00:54:59;57242.53;;;-140.43;47.31
30714;BME280;17465;47.934;33.430;2023-05-19T00:57:30;57242.53;;;-140.43;47.31
30714;BME280;17465;47.934;33.430;2023-05-19T01:00:01;57226.64;;;-140.43;47.43
30714;BME280;17465;47.934;33.430;2023-05-19T01:02:33;57226.64;;;-140.43;47.43
30714;BME280;17465;47.934;33.430;2023-05-19T01:05:05;57218.17;;;-140.43;48.18
30714;BME280;17465;47.934;33.430;2023-05-19T01:07:36;57258.41;;;-140.43;48.74
30714;BME280;17465;47.934;33.430;2023-05-19T01:10:07;57215.00;;;-140.43;48.37
30714;BME280;17465;47.934;33.430;2023-05-19T01:12:40;57224.53;;;-140.43;48.73
30714;BME280;17465;47.934;33.430;2023-05-19T01:15:11;57235.12;;;-140.43;48.82
30714;BME280;17465;47.934;33.430;2023-05-19T01:20:37;57235.12;;;-140.43;48.26
30714;BME280;17465;47.934;33.430;2023-05-19T01:23:19;57219.23;;;-140.43;47.39
30714;BME280;17465;47.934;33.430;2023-05-19T01:29:16;57242.53;;;-140.43;48.80
30714;BME280;17465;47.934;33.430;2023-05-19T01:31:40;57242.53;;;-140.43;48.80
30714;BME280;17465;47.934;33.430;2023-05-19T01:34:11;57212.87;;;-140.43;48.09
30714;BME280;17465;47.934;33.430;2023-05-19T01:36:43;57221.35;;;-140.43;49.94
30714;BME280;17465;47.934;33.430;2023-05-19T01:39:14;57221.35;;;-140.43;49.94
30714;BME280;17465;47.934;33.430;2023-05-19T01:41:45;57231.94;;;-140.43;48.30
30714;BME280;17465;47.934;33.430;2023-05-19T01:44:16;57231.94;;;-140.43;49.37
30714;BME280;17465;47.934;33.430;2023-05-19T01:46:47;57234.06;;;-140.43;50.50
30714;BME280;17465;47.934;33.430;2023-05-19T01:49:18;57219.23;;;-140.43;49.10
30714;BME280;17465;47.934;33.430;2023-05-19T01:51:49;57202.29;;;-140.43;50.20
30714;BME280;17465;47.934;33.430;2023-05-19T01:54:20;57202.29;;;-140.43;50.20
30714;BME280;17465;47.934;33.430;2023-05-19T01:57:15;57236.18;;;-140.43;50.58
30714;BME280;17465;47.934;33.430;2023-05-19T02:11:37;57221.35;;;-140.43;49.65
30714;BME280;17465;47.934;33.430;2023-05-19T02:16:56;57252.06;;;-140.43;52.00
30714;BME280;17465;47.934;33.430;2023-05-19T02:19:29;57227.70;;;-140.43;49.88
30714;BME280;17465;47.934;33.430;2023-05-19T02:21:59;57227.70;;;-140.43;49.05
30714;BME280;17465;47.934;33.430;2023-05-19T02:24:30;57227.70;;;-140.43;49.05
30714;BME280;17465;47.934;33.430;2023-05-19T02:27:00;57226.64;;;-140.43;49.51
30714;BME280;17465;47.934;33.430;2023-05-19T02:29:31;57227.70;;;-140.43;48.92
30714;BME280;17465;47.934;33.430;2023-05-19T02:32:01;57227.70;;;-140.43;50.58
30714;BME280;17465;47.934;33.430;2023-05-19T02:34:32;57241.47;;;-140.43;48.78
30714;BME280;17465;47.934;33.430;2023-05-19T02:37:03;57218.17;;;-140.43;49.76
30714;BME280;17465;47.934;33.430;2023-05-19T02:39:33;57218.17;;;-140.43;49.76
30714;BME280;17465;47.934;33.430;2023-05-19T02:42:04;57243.59;;;-140.43;49.12
30714;BME280;17465;47.934;33.430;2023-05-19T02:44:34;57208.64;;;-140.43;49.27
30714;BME280;17465;47.934;33.430;2023-05-19T02:47:05;57223.46;;;-140.43;49.20
30714;BME280;17465;47.934;33.430;2023-05-19T02:49:35;57223.46;;;-140.43;49.20
30714;BME280;17465;47.934;33.430;2023-05-19T02:52:06;57221.35;;;-140.43;49.40
30714;BME280;17465;47.934;33.430;2023-05-19T02:54:36;57217.11;;;-140.43;49.30
30714;BME280;17465;47.934;33.430;2023-05-19T02:57:12;57229.82;;;-140.43;49.37
30714;BME280;17465;47.934;33.430;2023-05-19T02:59:43;57229.82;;;-140.43;49.37
30714;BME280;17465;47.934;33.430;2023-05-19T03:02:13;57213.94;;;-140.43;49.05
30714;BME280;17465;47.934;33.430;2023-05-19T03:04:43;57213.94;;;-140.43;49.05
30714;BME280;17465;47.934;33.430;2023-05-19T03:07:14;57231.94;;;-140.43;49.41
30714;BME280;17465;47.934;33.430;2023-05-19T03:09:44;57231.94;;;-140.43;49.64
30714;BME280;17465;47.934;33.430;2023-05-19T03:12:15;57231.94;;;-140.43;49.64
30714;BME280;17465;47.934;33.430;2023-05-19T03:14:45;57225.59;;;-140.43;49.27
30714;BME280;17465;47.934;33.430;2023-05-19T03:17:16;57238.29;;;-140.43;49.26
30714;BME280;17465;47.934;33.430;2023-05-19T03:19:46;57235.12;;;-140.43;50.15
30714;BME280;17465;47.934;33.430;2023-05-19T03:22:17;57235.12;;;-140.43;50.15
30714;BME280;17465;47.934;33.430;2023-05-19T03:24:47;57231.94;;;-140.43;50.41
30714;BME280;17465;47.934;33.430;2023-05-19T03:27:29;57228.76;;;-140.43;50.48
30714;BME280;17465;47.934;33.430;2023-05-19T03:30:02;57255.24;;;-140.43;50.81
30714;BME280;17465;47.934;33.430;2023-05-19T03:32:34;57237.23;;;-140.43;49.09
30714;BME280;17465;47.934;33.430;2023-05-19T03:35:07;57239.35;;;-140.43;49.72
30714;BME280;17465;47.934;33.430;2023-05-19T03:37:38;57247.82;;;-140.43;48.99
30714;BME280;17465;47.934;33.430;2023-05-19T03:40:09;57247.82;;;-140.43;48.99
30714;BME280;17465;47.934;33.430;2023-05-19T03:42:40;57257.36;;;-140.43;49.51
30714;BME280;17465;47.934;33.430;2023-05-19T03:45:10;57210.76;;;-140.43;49.28
30714;BME280;17465;47.934;33.430;2023-05-19T03:47:41;57210.76;;;-140.43;49.28
30714;BME280;17465;47.934;33.430;2023-05-19T03:50:11;57235.12;;;-140.43;49.27
30714;BME280;17465;47.934;33.430;2023-05-19T03:52:48;57223.46;;;-140.43;48.64
30714;BME280;17465;47.934;33.430;2023-05-19T03:55:14;57238.29;;;-140.43;49.17
30714;BME280;17465;47.934;33.430;2023-05-19T03:57:51;57272.18;;;-140.43;48.66
30714;BME280;17465;47.934;33.430;2023-05-19T04:00:26;57230.88;;;-140.43;48.55
30714;BME280;17465;47.934;33.430;2023-05-19T04:02:56;57230.88;;;-140.43;48.55
30714;BME280;17465;47.934;33.430;2023-05-19T04:05:27;57266.89;;;-140.43;48.57
30714;BME280;17465;47.934;33.430;2023-05-19T04:07:57;57244.65;;;-140.43;49.20
30714;BME280;17465;47.934;33.430;2023-05-19T04:10:28;57265.83;;;-140.43;48.25
30714;BME280;17465;47.934;33.430;2023-05-19T04:12:58;57258.41;;;-140.43;48.36
30714;BME280;17465;47.934;33.430;2023-05-19T04:15:33;57280.66;;;-140.43;48.64
30714;BME280;17465;47.934;33.430;2023-05-19T04:18:04;57240.41;;;-140.43;47.76
30714;BME280;17465;47.934;33.430;2023-05-19T04:20:37;57265.83;;;-140.43;47.10
30714;BME280;17465;47.934;33.430;2023-05-19T04:23:08;57251.00;;;-140.43;49.70
30714;BME280;17465;47.934;33.430;2023-05-19T04:25:38;57269.00;;;-140.43;46.08
30714;BME280;17465;47.934;33.430;2023-05-19T04:28:08;57272.18;;;-140.43;46.09
30714;BME280;17465;47.934;33.430;2023-05-19T04:30:42;57272.18;;;-140.43;46.09
30714;BME280;17465;47.934;33.430;2023-05-19T04:33:16;57297.60;;;-140.43;44.29
30714;BME280;17465;47.934;33.430;2023-05-19T04:35:47;57247.82;;;-140.43;46.70
30714;BME280;17465;47.934;33.430;2023-05-19T04:38:18;57247.82;;;-140.43;46.70
30714;BME280;17465;47.934;33.430;2023-05-19T04:40:48;57284.89;;;-140.43;43.04
30714;BME280;17465;47.934;33.430;2023-05-19T04:43:23;57284.89;;;-140.43;43.04
30714;BME280;17465;47.934;33.430;2023-05-19T04:45:54;57287.01;;;-140.43;44.24
30714;BME280;17465;47.934;33.430;2023-05-19T04:48:27;57309.25;;;-140.43;44.07
30714;BME280;17465;47.934;33.430;2023-05-19T04:50:58;57308.19;;;-140.43;44.19
30714;BME280;17465;47.934;33.430;2023-05-19T04:53:32;57312.43;;;-140.43;44.19
30714;BME280;17465;47.934;33.430;2023-05-19T04:56:04;57310.31;;;-140.43;44.47
30714;BME280;17465;47.934;33.430;2023-05-19T04:58:42;57328.31;;;-140.43;42.18
30714;BME280;17465;47.934;33.430;2023-05-19T05:01:13;57315.61;;;-140.43;42.31
30714;BME280;17465;47.934;33.430;2023-05-19T05:03:52;57348.43;;;-140.43;41.76
30714;BME280;17465;47.934;33.430;2023-05-19T05:06:21;57348.43;;;-140.43;41.76
30714;BME280;17465;47.934;33.430;2023-05-19T05:08:52;57325.14;;;-140.43;41.39
30714;BME280;17465;47.934;33.430;2023-05-19T05:11:26;57346.32;;;-140.43;42.52
30714;BME280;17465;47.934;33.430;2023-05-19T05:13:57;57353.73;;;-140.43;41.97
30714;BME280;17465;47.934;33.430;2023-05-19T05:16:28;57353.73;;;-140.43;41.97
30714;BME280;17465;47.934;33.430;2023-05-19T05:18:59;57371.73;;;-140.43;42.68
30714;BME280;17465;47.934;33.430;2023-05-19T05:21:31;57343.14;;;-140.43;41.44
30714;BME280;17465;47.934;33.430;2023-05-19T05:24:02;57367.50;;;-140.43;41.96
30714;BME280;17465;47.934;33.430;2023-05-19T05:29:21;57399.27;;;-140.43;41.49
30714;BME280;17465;47.934;33.430;2023-05-19T05:31:59;57382.32;;;-140.43;41.07
30714;BME280;17465;47.934;33.430;2023-05-19T05:34:35;57382.32;;;-140.43;41.07
30714;BME280;17465;47.934;33.430;2023-05-19T05:37:18;57423.63;;;-140.43;41.59
30714;BME280;17465;47.934;33.430;2023-05-19T05:39:58;57432.10;;;-140.43;38.79
30714;BME280;17465;47.934;33.430;2023-05-19T05:43:10;57432.10;;;-140.43;38.79
30714;BME280;17465;47.934;33.430;2023-05-19T05:45:49;57441.63;;;-140.43;40.90
30714;BME280;17465;47.934;33.430;2023-05-19T05:48:23;57442.69;;;-140.43;40.25
30714;BME280;17465;47.934;33.430;2023-05-19T05:50:56;57428.92;;;-140.43;39.82
30714;BME280;17465;47.934;33.430;2023-05-19T05:53:34;57461.76;;;-140.43;39.17
30714;BME280;17465;47.934;33.430;2023-05-19T05:56:09;57443.75;;;-140.43;39.52
30714;BME280;17465;47.934;33.430;2023-05-19T05:58:43;57500.94;;;-140.43;37.74
30714;BME280;17465;47.934;33.430;2023-05-19T06:01:18;57505.18;;;-140.43;38.27
30714;BME280;17465;47.934;33.430;2023-05-19T06:03:58;57505.18;;;-140.43;38.27
30714;BME280;17465;47.934;33.430;2023-05-19T06:06:28;57548.61;;;-140.43;38.51
30714;BME280;17465;47.934;33.430;2023-05-19T06:08:58;57548.61;;;-140.43;38.51
30714;BME280;17465;47.934;33.430;2023-05-19T06:11:34;57542.25;;;-140.43;35.16
30714;BME280;17465;47.934;33.430;2023-05-19T06:14:07;57552.84;;;-140.43;35.01
30714;BME280;17465;47.934;33.430;2023-05-19T06:16:44;57552.84;;;-140.43;35.01
30714;BME280;17465;47.934;33.430;2023-05-19T06:19:15;57551.78;;;-140.43;36.38
30714;BME280;17465;47.934;33.430;2023-05-19T06:21:54;57569.79;;;-140.43;36.22
30714;BME280;17465;47.934;33.430;2023-05-19T06:24:32;57569.79;;;-140.43;36.22
30714;BME280;17465;47.934;33.430;2023-05-19T06:27:09;57584.61;;;-140.43;34.27
30714;BME280;17465;47.934;33.430;2023-05-19T06:29:34;57584.61;;;-140.43;34.27
30714;BME280;17465;47.934;33.430;2023-05-19T06:32:09;57603.68;;;-140.43;34.45
30714;BME280;17465;47.934;33.430;2023-05-19T06:34:40;57638.63;;;-140.43;32.76
30714;BME280;17465;47.934;33.430;2023-05-19T06:37:11;57638.63;;;-140.43;32.76
30714;BME280;17465;47.934;33.430;2023-05-19T06:39:41;57678.88;;;-140.43;32.97
30714;BME280;17465;47.934;33.430;2023-05-19T06:42:12;57678.88;;;-140.43;32.97
30714;BME280;17465;47.934;33.430;2023-05-19T06:44:42;57715.95;;;-140.43;32.74
30714;BME280;17465;47.934;33.430;2023-05-19T06:47:12;57715.95;;;-140.43;32.74
30714;BME280;17465;47.934;33.430;2023-05-19T06:49:44;57727.60;;;-140.43;32.39
30714;BME280;17465;47.934;33.430;2023-05-19T06:52:15;57763.61;;;-140.43;31.03
30714;BME280;17465;47.934;33.430;2023-05-19T06:54:46;57763.61;;;-140.43;31.03
30714;BME280;17465;47.934;33.430;2023-05-19T06:57:17;57826.11;;;-140.43;31.39
30714;BME280;17465;47.934;33.430;2023-05-19T06:59:47;57826.11;;;-140.43;31.39
30714;BME280;17465;47.934;33.430;2023-05-19T07:02:17;57894.95;;;-140.43;30.17
30714;BME280;17465;47.934;33.430;2023-05-19T07:04:58;57894.95;;;-140.43;30.17
30714;BME280;17465;47.934;33.430;2023-05-19T07:07:24;57914.02;;;-140.43;29.10
30714;BME280;17465;47.934;33.430;2023-05-19T07:09:58;57907.67;;;-140.43;30.19
30714;BME280;17465;47.934;33.430;2023-05-19T07:12:32;57975.46;;;-140.43;30.28
30714;BME280;17465;47.934;33.430;2023-05-19T07:15:09;57947.92;;;-140.43;29.47
30714;BME280;17465;47.934;33.430;2023-05-19T07:17:36;57947.92;;;-140.43;29.47
30714;BME280;17465;47.934;33.430;2023-05-19T07:20:09;57912.96;;;-140.43;29.53
30714;BME280;17465;47.934;33.430;2023-05-19T07:22:43;58071.85;;;-140.43;27.55
30714;BME280;17465;47.934;33.430;2023-05-19T07:25:16;58071.85;;;-140.43;27.55
30714;BME280;17465;47.934;33.430;2023-05-19T07:27:48;57982.87;;;-140.43;27.94
30714;BME280;17465;47.934;33.430;2023-05-19T07:30:25;58022.07;;;-140.43;28.26
30714;BME280;17465;47.934;33.430;2023-05-19T07:32:56;57992.41;;;-140.43;28.82
30714;BME280;17465;47.934;33.430;2023-05-19T07:35:26;58033.72;;;-140.43;29.17
30714;BME280;17465;47.934;33.430;2023-05-19T07:38:17;58043.25;;;-140.43;28.08
30714;BME280;17465;47.934;33.430;2023-05-19T07:40:54;58071.85;;;-140.43;28.19
30714;BME280;17465;47.934;33.430;2023-05-19T07:43:27;58059.14;;;-140.43;27.54
30714;BME280;17465;47.934;33.430;2023-05-19T07:45:57;58059.14;;;-140.43;27.54
30714;BME280;17465;47.934;33.430;2023-05-19T07:48:32;58062.32;;;-140.43;26.67
30714;BME280;17465;47.934;33.430;2023-05-19T07:51:02;58102.57;;;-140.43;26.64
30714;BME280;17465;47.934;33.430;2023-05-19T07:53:33;58031.60;;;-140.43;26.50
30714;BME280;17465;47.934;33.430;2023-05-19T07:56:10;58049.61;;;-140.43;26.84
30714;BME280;17465;47.934;33.430;2023-05-19T07:58:40;58119.52;;;-140.43;26.44
30714;BME280;17465;47.934;33.430;2023-05-19T08:01:11;58160.83;;;-140.43;23.45
30714;BME280;17465;47.934;33.430;2023-05-19T08:03:42;58197.91;;;-140.43;23.94
30714;BME280;17465;47.934;33.430;2023-05-19T08:06:18;58210.62;;;-140.43;24.22
30714;BME280;17465;47.934;33.430;2023-05-19T08:08:44;58031.60;;;-140.43;26.25
30714;BME280;17465;47.934;33.430;2023-05-19T08:11:15;58005.12;;;-140.43;25.26
30714;BME280;17465;47.934;33.430;2023-05-19T08:13:45;58005.12;;;-140.43;25.26
30714;BME280;17465;47.934;33.430;2023-05-19T08:16:15;58043.25;;;-140.43;25.00
30714;BME280;17465;47.934;33.430;2023-05-19T08:18:46;58043.25;;;-140.43;25.00
30714;BME280;17465;47.934;33.430;2023-05-19T08:21:17;58037.95;;;-140.43;24.70
30714;BME280;17465;47.934;33.430;2023-05-19T08:23:47;58009.36;;;-140.43;24.93
30714;BME280;17465;47.934;33.430;2023-05-19T08:26:18;57946.86;;;-140.43;24.84
30714;BME280;17465;47.934;33.430;2023-05-19T08:28:52;57946.86;;;-140.43;24.84
30714;BME280;17465;47.934;33.430;2023-05-19T08:31:20;57946.86;;;-140.43;25.75
30714;BME280;17465;47.934;33.430;2023-05-19T08:33:51;57933.09;;;-140.43;25.30
30714;BME280;17465;47.934;33.430;2023-05-19T08:36:21;57933.09;;;-140.43;25.30
30714;BME280;17465;47.934;33.430;2023-05-19T08:38:54;58022.07;;;-140.43;25.14
30714;BME280;17465;47.934;33.430;2023-05-19T08:41:29;58014.65;;;-140.43;26.25
30714;BME280;17465;47.934;33.430;2023-05-19T08:43:59;58075.03;;;-140.43;24.78
30714;BME280;17465;47.934;33.430;2023-05-19T08:46:34;58069.73;;;-140.43;25.18
30714;BME280;17465;47.934;33.430;2023-05-19T08:49:12;58034.78;;;-140.43;26.44
30714;BME280;17465;47.934;33.430;2023-05-19T08:52:16;58030.54;;;-140.43;24.72
30714;BME280;17465;47.934;33.430;2023-05-19T08:54:59;58214.86;;;-140.43;22.72
30714;BME280;17465;47.934;33.430;2023-05-19T08:57:21;58212.74;;;-140.43;23.51
30714;BME280;17465;47.934;33.430;2023-05-19T08:59:54;58273.12;;;-140.43;23.89
30714;BME280;17465;47.934;33.430;2023-05-19T09:02:25;58339.86;;;-140.43;23.27
30714;BME280;17465;47.934;33.430;2023-05-19T09:04:56;58118.46;;;-140.43;23.58
30714;BME280;17465;47.934;33.430;2023-05-19T09:07:29;58118.46;;;-140.43;23.58
30714;BME280;17465;47.934;33.430;2023-05-19T09:10:04;58088.80;;;-140.43;23.60
30714;BME280;17465;47.934;33.430;2023-05-19T09:12:38;58031.60;;;-140.43;23.78
30714;BME280;17465;47.934;33.430;2023-05-19T09:15:08;58087.74;;;-140.43;23.83
30714;BME280;17465;47.934;33.430;2023-05-19T09:17:40;58024.18;;;-140.43;25.59
30714;BME280;17465;47.934;33.430;2023-05-19T09:20:10;58013.59;;;-140.43;26.00
30714;BME280;17465;47.934;33.430;2023-05-19T09:22:44;58028.42;;;-140.43;26.07
30714;BME280;17465;47.934;33.430;2023-05-19T09:25:32;58065.50;;;-140.43;24.90
30714;BME280;17465;47.934;33.430;2023-05-19T09:28:02;58015.71;;;-140.43;25.60
30714;BME280;17465;47.934;33.430;2023-05-19T09:30:33;57994.52;;;-140.43;26.43
30714;BME280;17465;47.934;33.430;2023-05-19T09:33:06;57994.52;;;-140.43;26.43
30714;BME280;17465;47.934;33.430;2023-05-19T09:35:39;58106.81;;;-140.43;25.35
30714;BME280;17465;47.934;33.430;2023-05-19T09:38:15;58042.19;;;-140.43;24.54
30714;BME280;17465;47.934;33.430;2023-05-19T09:40:43;58009.36;;;-140.43;23.92
30714;BME280;17465;47.934;33.430;2023-05-19T09:43:14;58129.05;;;-140.43;24.81
30714;BME280;17465;47.934;33.430;2023-05-19T09:45:58;58129.05;;;-140.43;24.81
30714;BME280;17465;47.934;33.430;2023-05-19T09:48:30;58103.63;;;-140.43;24.02
30714;BME280;17465;47.934;33.430;2023-05-19T09:51:06;58170.37;;;-140.43;22.42
30714;BME280;17465;47.934;33.430;2023-05-19T09:53:37;58339.86;;;-140.43;22.47
30714;BME280;17465;47.934;33.430;2023-05-19T09:56:08;58380.12;;;-140.43;22.64
30714;BME280;17465;47.934;33.430;2023-05-19T09:58:41;58380.12;;;-140.43;22.64
30714;BME280;17465;47.934;33.430;2023-05-19T10:01:15;58373.76;;;-140.43;22.28
30714;BME280;17465;47.934;33.430;2023-05-19T10:03:46;58373.76;;;-140.43;22.28
30714;BME280;17465;47.934;33.430;2023-05-19T10:06:17;58347.28;;;-140.43;22.26
30714;BME280;17465;47.934;33.430;2023-05-19T10:08:51;58390.71;;;-140.43;21.57
30714;BME280;17465;47.934;33.430;2023-05-19T10:11:22;58389.65;;;-140.43;22.18
30714;BME280;17465;47.934;33.430;2023-05-19T10:13:53;58359.99;;;-140.43;22.40
30714;BME280;17465;47.934;33.430;2023-05-19T10:16:27;58400.25;;;-140.43;21.32
30714;BME280;17465;47.934;33.430;2023-05-19T10:19:00;58400.25;;;-140.43;21.32
30714;BME280;17465;47.934;33.430;2023-05-19T10:21:32;58414.02;;;-140.43;22.96
30714;BME280;17465;47.934;33.430;2023-05-19T10:24:02;58393.89;;;-140.43;21.52
30714;BME280;17465;47.934;33.430;2023-05-19T10:26:34;58310.20;;;-140.43;21.50
30714;BME280;17465;47.934;33.430;2023-05-19T10:29:05;58310.20;;;-140.43;21.50
30714;BME280;17465;47.934;33.430;2023-05-19T10:31:38;58212.74;;;-140.43;22.25
30714;BME280;17465;47.934;33.430;2023-05-19T10:37:10;58286.89;;;-140.43;23.20
30714;BME280;17465;47.934;33.430;2023-05-19T10:39:41;58344.10;;;-140.43;21.94
30714;BME280;17465;47.934;33.430;2023-05-19T10:42:17;58295.37;;;-140.43;22.78
30714;BME280;17465;47.934;33.430;2023-05-19T10:45:08;58380.12;;;-140.43;22.51
30714;BME280;17465;47.934;33.430;2023-05-19T10:47:38;58380.12;;;-140.43;22.51
30714;BME280;17465;47.934;33.430;2023-05-19T10:50:12;58447.92;;;-140.43;20.86
30714;BME280;17465;47.934;33.430;2023-05-19T10:52:43;58424.61;;;-140.43;22.77
30714;BME280;17465;47.934;33.430;2023-05-19T10:55:15;58409.78;;;-140.43;22.31
30714;BME280;17465;47.934;33.430;2023-05-19T10:57:54;58409.78;;;-140.43;22.31
30714;BME280;17465;47.934;33.430;2023-05-19T11:00:29;58453.22;;;-140.43;21.75
30714;BME280;17465;47.934;33.430;2023-05-19T11:03:11;58456.39;;;-140.43;21.66
30714;BME280;17465;47.934;33.430;2023-05-19T11:05:42;58498.77;;;-140.43;21.71
30714;BME280;17465;47.934;33.430;2023-05-19T11:08:12;58485.00;;;-140.43;21.00
30714;BME280;17465;47.934;33.430;2023-05-19T11:10:45;58428.85;;;-140.43;21.24
30714;BME280;17465;47.934;33.430;2023-05-19T11:13:25;58428.85;;;-140.43;21.24
30714;BME280;17465;47.934;33.430;2023-05-19T11:15:55;58450.04;;;-140.43;20.81
30714;BME280;17465;47.934;33.430;2023-05-19T11:18:26;58450.04;;;-140.43;20.81
30714;BME280;17465;47.934;33.430;2023-05-19T11:20:59;58436.27;;;-140.43;20.91
30714;BME280;17465;47.934;33.430;2023-05-19T11:23:37;58436.27;;;-140.43;20.91
30714;BME280;17465;47.934;33.430;2023-05-19T11:26:06;58415.08;;;-140.43;20.99
30714;BME280;17465;47.934;33.430;2023-05-19T11:28:38;58406.60;;;-140.43;20.55
30714;BME280;17465;47.934;33.430;2023-05-19T11:31:10;58358.93;;;-140.43;20.85
30714;BME280;17465;47.934;33.430;2023-05-19T11:33:41;58411.90;;;-140.43;21.37
30714;BME280;17465;47.934;33.430;2023-05-19T11:36:12;58452.16;;;-140.43;21.59
30714;BME280;17465;47.934;33.430;2023-05-19T11:38:50;58416.14;;;-140.43;21.21
30714;BME280;17465;47.934;33.430;2023-05-19T11:41:21;58406.60;;;-140.43;23.20
30714;BME280;17465;47.934;33.430;2023-05-19T11:43:51;58410.84;;;-140.43;23.16
30714;BME280;17465;47.934;33.430;2023-05-19T11:46:33;58349.40;;;-140.43;22.03
30714;BME280;17465;47.934;33.430;2023-05-19T11:49:10;58322.91;;;-140.43;23.37
30714;BME280;17465;47.934;33.430;2023-05-19T11:52:01;58435.21;;;-140.43;20.81
30714;BME280;17465;47.934;33.430;2023-05-19T11:54:32;58435.21;;;-140.43;20.81
30714;BME280;17465;47.934;33.430;2023-05-19T11:57:12;58424.61;;;-140.43;20.88
30714;BME280;17465;47.934;33.430;2023-05-19T11:59:46;58384.36;;;-140.43;21.17
30714;BME280;17465;47.934;33.430;2023-05-19T12:02:21;58384.36;;;-140.43;21.17
30714;BME280;17465;47.934;33.430;2023-05-19T12:05:03;58314.44;;;-140.43;21.23
30714;BME280;17465;47.934;33.430;2023-05-19T12:07:39;58247.70;;;-140.43;21.55
30714;BME280;17465;47.934;33.430;2023-05-19T12:10:25;58247.70;;;-140.43;21.55
30714;BME280;17465;47.934;33.430;2023-05-19T12:12:57;58167.19;;;-140.43;22.03
30714;BME280;17465;47.934;33.430;2023-05-19T12:15:32;58276.30;;;-140.43;22.28
30714;BME280;17465;47.934;33.430;2023-05-19T12:18:03;58276.30;;;-140.43;22.28
30714;BME280;17465;47.934;33.430;2023-05-19T12:20:34;58429.91;;;-140.43;21.20
30714;BME280;17465;47.934;33.430;2023-05-19T12:23:12;58436.27;;;-140.43;20.63
30714;BME280;17465;47.934;33.430;2023-05-19T12:25:41;58123.76;;;-140.43;21.90
30714;BME280;17465;47.934;33.430;2023-05-19T12:28:14;58063.38;;;-140.43;22.58
30714;BME280;17465;47.934;33.430;2023-05-19T12:30:47;57947.92;;;-140.43;23.50
30714;BME280;17465;47.934;33.430;2023-05-19T12:33:18;57854.70;;;-140.43;24.82
30714;BME280;17465;47.934;33.430;2023-05-19T12:35:52;57854.70;;;-140.43;24.82
30714;BME280;17465;47.934;33.430;2023-05-19T12:38:29;57815.51;;;-140.43;25.38
30714;BME280;17465;47.934;33.430;2023-05-19T12:41:05;57740.31;;;-140.43;27.90
30714;BME280;17465;47.934;33.430;2023-05-19T12:43:42;57740.31;;;-140.43;27.90
30714;BME280;17465;47.934;33.430;2023-05-19T12:46:12;57718.07;;;-140.43;29.71
30714;BME280;17465;47.934;33.430;2023-05-19T12:48:47;57689.47;;;-140.43;28.73
30714;BME280;17465;47.934;33.430;2023-05-19T12:51:20;57685.23;;;-140.43;28.36
30714;BME280;17465;47.934;33.430;2023-05-19T12:53:51;57726.54;;;-140.43;28.49
30714;BME280;17465;47.934;33.430;2023-05-19T12:56:24;57706.42;;;-140.43;27.59
30714;BME280;17465;47.934;33.430;2023-05-19T12:58:54;57706.42;;;-140.43;27.59
30714;BME280;17465;47.934;33.430;2023-05-19T13:01:25;57864.24;;;-140.43;25.28
30714;BME280;17465;47.934;33.430;2023-05-19T13:04:03;57864.24;;;-140.43;25.28
30714;BME280;17465;47.934;33.430;2023-05-19T13:06:35;57886.48;;;-140.43;25.03
30714;BME280;17465;47.934;33.430;2023-05-19T13:09:10;57886.48;;;-140.43;25.03
30714;BME280;17465;47.934;33.430;2023-05-19T13:11:45;57844.11;;;-140.43;25.90
30714;BME280;17465;47.934;33.430;2023-05-19T13:14:17;57763.61;;;-140.43;26.39
30714;BME280;17465;47.934;33.430;2023-05-19T13:16:47;57763.61;;;-140.43;26.39
30714;BME280;17465;47.934;33.430;2023-05-19T13:19:19;57803.86;;;-140.43;25.82
30714;BME280;17465;47.934;33.430;2023-05-19T13:21:51;57790.09;;;-140.43;25.75
30714;BME280;17465;47.934;33.430;2023-05-19T13:24:21;57755.14;;;-140.43;27.69
30714;BME280;17465;47.934;33.430;2023-05-19T13:26:54;57739.25;;;-140.43;27.15